createdAt,value
2022-12-15T00:02:17.019Z,89.03
2022-12-15T00:05:02.155Z,88.81
2022-12-15T00:07:47.403Z,88.94
2022-12-15T00:10:32.735Z,88.61
2022-12-15T00:13:18.210Z,88.49
2022-12-15T00:16:07.801Z,88.67
2022-12-15T00:18:53.384Z,88.50
2022-12-15T00:21:38.230Z,88.43
2022-12-15T00:24:23.647Z,88.32
2022-12-15T00:27:08.580Z,88.43
2022-12-15T00:29:53.658Z,88.66
2022-12-15T00:32:38.566Z,88.43
2022-12-15T00:35:24.073Z,88.28
2022-12-15T00:38:08.939Z,88.47
2022-12-15T00:40:35.431Z,88.76
2022-12-15T00:43:01.913Z,88.81
2022-12-15T00:45:48.528Z,88.92
2022-12-15T00:48:15.229Z,88.14
2022-12-15T00:50:53.638Z,88.52
2022-12-15T00:53:42.802Z,88.69
2022-12-15T00:56:28.609Z,88.45
2022-12-15T01:04:04.411Z,88.32
2022-12-15T01:06:49.314Z,88.61
2022-12-15T01:09:34.652Z,88.63
2022-12-15T01:12:19.530Z,88.71
2022-12-15T01:15:04.477Z,88.55
2022-12-15T01:17:49.287Z,88.56
2022-12-15T01:20:18.494Z,88.60
2022-12-15T01:22:49.712Z,88.49
2022-12-15T01:25:18.199Z,88.24
2022-12-15T01:27:45.278Z,88.20
2022-12-15T01:30:14.890Z,88.23
2022-12-15T01:32:45.827Z,88.11
2022-12-15T01:35:12.711Z,88.34
2022-12-15T01:37:39.984Z,88.34
2022-12-15T01:40:26.445Z,88.66
2022-12-15T01:42:52.909Z,88.34
2022-12-15T01:45:28.333Z,87.88
2022-12-15T01:48:05.407Z,87.31
2022-12-15T01:50:37.000Z,86.93
2022-12-15T01:53:03.645Z,87.38
2022-12-15T01:55:30.430Z,87.16
2022-12-15T01:58:02.938Z,86.79
2022-12-15T02:00:30.878Z,87.11
2022-12-15T02:03:00.531Z,86.91
2022-12-15T02:05:29.968Z,86.83
2022-12-15T02:07:56.502Z,86.97
2022-12-15T02:10:27.586Z,87.08
2022-12-15T02:13:18.130Z,87.37
2022-12-15T02:16:00.205Z,87.64
2022-12-15T02:18:59.871Z,88.11
2022-12-15T02:21:36.035Z,88.64
2022-12-15T02:24:19.452Z,88.47
2022-12-15T02:27:10.099Z,88.71
2022-12-15T02:30:05.693Z,88.99
2022-12-15T02:32:40.273Z,88.44
2022-12-15T02:35:15.100Z,88.54
2022-12-15T02:37:42.030Z,88.82
2022-12-15T02:40:10.418Z,88.82
2022-12-15T02:42:43.688Z,88.89
2022-12-15T02:45:14.337Z,88.87
2022-12-15T02:47:58.198Z,88.83
2022-12-15T02:50:27.466Z,88.52
2022-12-15T02:53:02.894Z,88.79
2022-12-15T02:55:43.757Z,89.01
2022-12-15T02:58:56.300Z,88.92
2022-12-15T03:01:43.316Z,88.62
2022-12-15T03:04:11.825Z,88.25
2022-12-15T03:06:39.068Z,88.00
2022-12-15T03:09:05.877Z,88.19
2022-12-15T03:11:32.262Z,87.89
2022-12-15T03:13:58.673Z,87.78
2022-12-15T03:16:25.209Z,88.38
2022-12-15T03:18:52.482Z,88.54
2022-12-15T03:21:18.982Z,88.36
2022-12-15T03:23:45.389Z,88.39
2022-12-15T03:26:12.029Z,88.55
2022-12-15T03:28:38.415Z,88.58
2022-12-15T03:31:05.176Z,89.00
2022-12-15T03:33:34.303Z,89.02
2022-12-15T03:36:01.163Z,88.94
2022-12-15T03:38:27.719Z,88.85
2022-12-15T03:40:54.216Z,89.24
2022-12-15T03:43:20.770Z,89.19
2022-12-15T03:45:47.303Z,89.45
2022-12-15T03:48:13.703Z,89.36
2022-12-15T03:50:40.839Z,89.34
2022-12-15T03:53:07.644Z,89.53
2022-12-15T03:55:35.175Z,89.52
2022-12-15T03:58:02.702Z,89.49
2022-12-15T04:00:29.520Z,89.11
2022-12-15T04:02:56.051Z,88.90
2022-12-15T04:05:27.420Z,88.96
2022-12-15T04:07:55.282Z,88.98
2022-12-15T04:10:26.193Z,89.03
2022-12-15T04:13:02.590Z,88.94
2022-12-15T04:15:29.098Z,89.31
2022-12-15T04:17:55.856Z,89.44
2022-12-15T04:20:22.989Z,89.42
2022-12-15T04:22:50.562Z,89.46
2022-12-15T04:25:41.931Z,89.29
2022-12-15T04:28:28.844Z,89.22
2022-12-15T04:31:17.767Z,89.25
2022-12-15T04:34:07.040Z,89.12
2022-12-15T04:36:54.308Z,89.17
2022-12-15T04:39:39.083Z,89.02
2022-12-15T04:42:24.607Z,88.97
2022-12-15T04:45:15.573Z,88.88
2022-12-15T04:48:05.221Z,89.33
2022-12-15T04:50:50.006Z,89.55
2022-12-15T04:53:36.972Z,89.90
2022-12-15T04:56:22.783Z,89.93
2022-12-15T04:59:08.158Z,90.04
2022-12-15T05:01:53.725Z,90.07
2022-12-15T05:04:38.985Z,90.49
2022-12-15T05:07:24.137Z,90.35
2022-12-15T05:10:14.692Z,90.12
2022-12-15T05:13:00.201Z,90.15
2022-12-15T05:15:45.113Z,90.24
2022-12-15T05:18:29.849Z,90.04
2022-12-15T05:21:16.740Z,90.30
2022-12-15T05:24:01.670Z,90.07
2022-12-15T05:26:52.104Z,90.00
2022-12-15T05:29:37.890Z,89.88
2022-12-15T05:32:04.401Z,89.96
2022-12-15T05:34:33.036Z,90.18
2022-12-15T05:37:01.254Z,90.02
2022-12-15T05:39:28.358Z,89.59
2022-12-15T05:41:56.325Z,89.77
2022-12-15T05:44:23.928Z,89.85
2022-12-15T05:46:50.595Z,89.47
2022-12-15T05:49:18.244Z,89.28
2022-12-15T05:51:46.805Z,89.57
2022-12-15T05:54:18.579Z,89.40
2022-12-15T05:56:45.643Z,89.89
2022-12-15T05:59:12.623Z,88.89
2022-12-15T06:01:39.213Z,89.13
2022-12-15T06:04:06.008Z,89.30
2022-12-15T06:06:32.472Z,89.26
2022-12-15T06:08:59.047Z,89.06
2022-12-15T06:11:25.512Z,89.24
2022-12-15T06:13:51.924Z,89.23
2022-12-15T06:16:21.033Z,88.94
2022-12-15T06:22:05.612Z,88.80
2022-12-15T06:24:33.860Z,88.79
2022-12-15T06:27:01.868Z,89.10
2022-12-15T06:29:28.300Z,89.17
2022-12-15T06:31:55.775Z,89.12
2022-12-15T06:34:22.290Z,89.14
2022-12-15T06:36:48.796Z,89.08
2022-12-15T06:39:16.293Z,88.98
2022-12-15T06:41:43.768Z,89.11
2022-12-15T06:44:15.835Z,89.32
2022-12-15T06:46:42.893Z,89.45
2022-12-15T06:49:09.320Z,89.50
2022-12-15T06:51:36.337Z,89.40
2022-12-15T06:54:03.744Z,89.25
2022-12-15T06:56:37.433Z,89.34
2022-12-15T06:59:06.143Z,88.95
2022-12-15T07:01:33.526Z,88.48
2022-12-15T07:04:01.512Z,88.34
2022-12-15T07:06:31.794Z,88.21
2022-12-15T07:08:58.184Z,88.12
2022-12-15T07:11:24.710Z,87.82
2022-12-15T07:13:52.301Z,87.79
2022-12-15T07:16:20.148Z,87.77
2022-12-15T07:18:46.721Z,87.75
2022-12-15T07:21:13.144Z,87.60
2022-12-15T07:23:54.249Z,87.48
2022-12-15T07:26:21.935Z,87.60
2022-12-15T07:28:48.376Z,87.21
2022-12-15T07:32:36.616Z,87.44
2022-12-15T07:35:05.322Z,86.99
2022-12-15T07:37:32.077Z,87.10
2022-12-15T07:39:58.446Z,87.34
2022-12-15T07:42:24.858Z,87.39
2022-12-15T07:44:53.856Z,87.59
2022-12-15T07:47:20.468Z,87.96
2022-12-15T07:49:46.864Z,88.21
2022-12-15T07:52:14.070Z,88.08
2022-12-15T07:54:41.001Z,87.97
2022-12-15T07:57:07.477Z,88.09
2022-12-15T07:59:34.488Z,88.25
2022-12-15T08:02:06.348Z,88.11
2022-12-15T08:04:33.098Z,87.95
2022-12-15T08:06:59.524Z,87.81
2022-12-15T08:09:25.922Z,87.55
2022-12-15T08:11:52.334Z,88.27
2022-12-15T08:14:19.294Z,88.16
2022-12-15T08:16:46.249Z,88.67
2022-12-15T08:19:15.292Z,88.82
2022-12-15T08:21:45.817Z,88.89
2022-12-15T08:24:14.074Z,89.15
2022-12-15T08:26:42.227Z,89.61
2022-12-15T08:29:48.964Z,89.79
2022-12-15T08:31:58.727Z,90.06
2022-12-15T08:34:25.329Z,90.14
2022-12-15T08:36:51.812Z,90.29
2022-12-15T08:39:18.574Z,90.52
2022-12-15T08:41:45.108Z,90.67
2022-12-15T08:44:11.537Z,90.49
2022-12-15T08:46:38.015Z,90.33
2022-12-15T08:49:04.610Z,90.41
2022-12-15T08:51:32.374Z,90.56
2022-12-15T08:54:00.563Z,90.39
2022-12-15T08:56:27.586Z,90.49
2022-12-15T08:58:59.890Z,90.61
2022-12-15T09:01:28.519Z,90.40
2022-12-15T09:03:56.906Z,90.61
2022-12-15T09:06:29.862Z,90.60
2022-12-15T09:08:59.075Z,90.42
2022-12-15T09:11:26.790Z,90.53
2022-12-15T09:13:53.786Z,90.47
2022-12-15T09:16:21.595Z,90.42
2022-12-15T09:18:53.092Z,90.53
2022-12-15T09:21:22.988Z,90.37
2022-12-15T09:23:51.977Z,90.25
2022-12-15T09:26:20.950Z,90.12
2022-12-15T09:28:50.115Z,90.21
2022-12-15T09:31:28.255Z,90.15
2022-12-15T09:33:56.662Z,89.98
2022-12-15T09:36:24.029Z,89.77
2022-12-15T09:38:50.502Z,89.53
2022-12-15T09:41:27.221Z,89.05
2022-12-15T09:44:05.131Z,88.34
2022-12-15T09:46:57.112Z,87.86
2022-12-15T09:49:51.771Z,88.13
2022-12-15T09:52:21.035Z,87.82
2022-12-15T09:54:47.641Z,87.06
2022-12-15T09:57:39.622Z,87.82
2022-12-15T10:00:25.722Z,87.91
2022-12-15T10:03:30.987Z,88.64
2022-12-15T10:06:25.937Z,88.86
2022-12-15T10:09:00.413Z,88.28
2022-12-15T10:11:43.338Z,87.87
2022-12-15T10:14:30.884Z,87.97
2022-12-15T10:17:31.887Z,88.33
2022-12-15T10:20:18.767Z,88.79
2022-12-15T10:22:45.682Z,89.20
2022-12-15T10:25:30.401Z,88.95
2022-12-15T10:28:04.369Z,89.04
2022-12-15T10:30:31.257Z,89.23
2022-12-15T10:33:09.153Z,89.04
2022-12-15T10:35:37.095Z,88.84
2022-12-15T10:38:21.932Z,88.95
2022-12-15T10:40:55.538Z,88.93
2022-12-15T10:43:27.945Z,88.69
2022-12-15T10:46:18.842Z,88.60
2022-12-15T10:48:51.028Z,88.59
2022-12-15T10:51:29.821Z,88.23
2022-12-15T10:54:03.432Z,88.43
2022-12-15T10:56:34.138Z,87.40
2022-12-15T10:59:23.545Z,86.56
2022-12-15T11:01:51.095Z,85.75
2022-12-15T11:04:33.215Z,84.69
2022-12-15T11:07:02.551Z,84.45
2022-12-15T11:09:37.025Z,84.10
2022-12-15T11:12:36.920Z,83.70
2022-12-15T11:15:23.595Z,83.56
2022-12-15T11:18:00.584Z,83.43
2022-12-15T11:20:36.173Z,82.94
2022-12-15T11:23:13.618Z,83.12
2022-12-15T11:25:45.345Z,83.18
2022-12-15T11:28:19.526Z,83.59
2022-12-15T11:30:53.619Z,83.76
2022-12-15T11:33:20.788Z,83.78
2022-12-15T11:36:11.376Z,83.36
2022-12-15T11:38:51.040Z,81.69
2022-12-15T11:41:27.389Z,79.84
2022-12-15T11:44:11.512Z,79.26
2022-12-15T11:46:47.340Z,79.68
2022-12-15T11:49:15.294Z,79.92
2022-12-15T11:52:22.836Z,79.96
2022-12-15T11:55:15.830Z,82.82
2022-12-15T11:58:11.786Z,83.26
2022-12-15T12:00:54.862Z,83.06
2022-12-15T12:03:26.161Z,81.83
2022-12-15T12:06:06.338Z,82.17
2022-12-15T12:09:03.131Z,83.71
2022-12-15T12:11:42.973Z,81.17
2022-12-15T12:14:50.853Z,80.18
2022-12-15T12:17:36.224Z,76.36
2022-12-15T12:20:14.183Z,75.64
2022-12-15T12:22:45.291Z,77.51
2022-12-15T12:25:18.629Z,77.21
2022-12-15T12:27:53.129Z,73.90
2022-12-15T12:30:26.181Z,75.07
2022-12-15T12:33:16.071Z,73.95
2022-12-15T12:36:05.910Z,73.62
2022-12-15T12:38:39.861Z,73.42
2022-12-15T12:41:06.274Z,71.85
2022-12-15T12:43:38.592Z,70.19
2022-12-15T12:46:14.325Z,71.17
2022-12-15T12:48:51.357Z,72.10
2022-12-15T12:51:34.398Z,72.48
2022-12-15T12:54:01.338Z,71.48
2022-12-15T12:56:43.183Z,70.84
2022-12-15T12:59:28.350Z,71.15
2022-12-15T13:02:26.149Z,69.88
2022-12-15T13:04:59.990Z,67.28
2022-12-15T13:07:36.075Z,67.02
2022-12-15T13:10:08.660Z,66.31
2022-12-15T13:12:53.216Z,65.37
2022-12-15T13:15:29.331Z,65.51
2022-12-15T13:18:16.139Z,65.85
2022-12-15T13:20:45.091Z,65.80
2022-12-15T13:23:21.493Z,65.77
2022-12-15T13:25:56.745Z,64.69
2022-12-15T13:28:24.845Z,64.63
2022-12-15T13:31:17.963Z,64.63
2022-12-15T13:33:50.735Z,63.86
2022-12-15T13:36:42.072Z,62.61
2022-12-15T13:39:12.149Z,63.58
2022-12-15T13:42:15.391Z,63.93
2022-12-15T13:44:43.948Z,62.12
2022-12-15T13:47:27.996Z,63.64
2022-12-15T13:50:02.217Z,65.25
2022-12-15T13:53:16.532Z,65.99
2022-12-15T13:55:28.282Z,66.87
2022-12-15T13:57:58.572Z,68.99
2022-12-15T14:00:25.207Z,70.50
2022-12-15T14:02:54.657Z,71.63
2022-12-15T14:05:27.194Z,73.54
2022-12-15T14:07:57.896Z,73.36
2022-12-15T14:10:50.753Z,73.94
2022-12-15T14:13:43.052Z,73.13
2022-12-15T14:16:18.264Z,72.28
2022-12-15T14:18:45.621Z,71.33
2022-12-15T14:21:21.997Z,71.86
2022-12-15T14:24:19.734Z,71.87
2022-12-15T14:26:35.891Z,71.42
2022-12-15T14:29:05.373Z,71.39
2022-12-15T14:31:32.476Z,71.78
2022-12-15T14:34:06.198Z,72.79
2022-12-15T14:36:33.208Z,73.31
2022-12-15T14:39:15.527Z,73.35
2022-12-15T14:41:48.996Z,74.30
2022-12-15T14:44:39.123Z,74.31
2022-12-15T14:47:16.250Z,74.58
2022-12-15T14:49:45.401Z,75.02
2022-12-15T14:52:42.903Z,75.33
2022-12-15T14:55:21.217Z,75.47
2022-12-15T14:57:48.186Z,77.60
2022-12-15T15:00:33.889Z,79.70
2022-12-15T15:03:18.850Z,80.65
2022-12-15T15:05:48.881Z,80.85
2022-12-15T15:08:30.896Z,81.30
2022-12-15T15:11:01.794Z,81.88
2022-12-15T15:13:40.852Z,81.78
2022-12-15T15:16:15.313Z,82.14
2022-12-15T15:18:43.368Z,82.27
2022-12-15T15:21:18.738Z,82.41
2022-12-15T15:24:17.674Z,82.23
2022-12-15T15:26:44.577Z,82.96
2022-12-15T15:29:41.701Z,83.24
2022-12-15T15:32:20.302Z,83.28
2022-12-15T15:34:47.230Z,82.75
2022-12-15T15:37:23.138Z,82.87
2022-12-15T15:39:54.524Z,82.81
2022-12-15T15:42:21.689Z,83.13
2022-12-15T15:44:48.137Z,83.35
2022-12-15T15:47:26.707Z,83.32
2022-12-15T15:49:55.494Z,83.32
2022-12-15T15:52:22.504Z,83.82
2022-12-15T15:54:49.040Z,84.05
2022-12-15T15:57:16.973Z,83.91
2022-12-15T15:59:44.218Z,84.13
2022-12-15T16:02:14.031Z,84.36
2022-12-15T16:04:42.581Z,84.78
2022-12-15T16:07:22.655Z,84.89
2022-12-15T16:09:51.804Z,85.27
2022-12-15T16:12:40.598Z,85.31
2022-12-15T16:15:23.449Z,85.40
2022-12-15T16:17:51.441Z,85.71
2022-12-15T16:20:20.021Z,85.83
2022-12-15T16:22:51.053Z,85.96
2022-12-15T16:25:21.696Z,86.26
2022-12-15T16:27:48.343Z,86.23
2022-12-15T16:30:23.624Z,85.96
2022-12-15T16:32:51.054Z,86.13
2022-12-15T16:35:18.370Z,86.20
2022-12-15T16:37:49.263Z,86.45
2022-12-15T16:40:25.362Z,86.61
2022-12-15T16:42:57.968Z,86.48
2022-12-15T16:45:27.426Z,86.54
2022-12-15T16:47:54.032Z,86.54
2022-12-15T16:50:36.043Z,86.69
2022-12-15T16:53:04.414Z,86.82
2022-12-15T16:55:39.557Z,86.63
2022-12-15T16:58:06.995Z,86.65
2022-12-15T17:00:35.194Z,86.56
2022-12-15T17:03:02.227Z,86.55
2022-12-15T17:05:34.582Z,86.99
2022-12-15T17:08:04.350Z,87.12
2022-12-15T17:10:31.130Z,86.76
2022-12-15T17:13:39.132Z,86.78
2022-12-15T17:16:13.575Z,87.05
2022-12-15T17:18:40.721Z,87.22
2022-12-15T17:21:18.539Z,87.13
2022-12-15T17:23:47.434Z,87.13
2022-12-15T17:26:30.688Z,87.51
2022-12-15T17:29:07.453Z,87.62
2022-12-15T17:31:36.016Z,87.57
2022-12-15T17:34:32.238Z,87.57
2022-12-15T17:37:00.659Z,87.29
2022-12-15T17:39:28.158Z,87.45
2022-12-15T17:42:00.425Z,87.46
2022-12-15T17:44:33.455Z,87.38
2022-12-15T17:47:00.481Z,87.80
2022-12-15T17:49:31.598Z,87.62
2022-12-15T17:52:04.289Z,87.49
2022-12-15T17:54:30.860Z,87.94
2022-12-15T17:56:57.407Z,88.11
2022-12-15T17:59:23.793Z,88.20
2022-12-15T18:01:50.305Z,87.64
2022-12-15T18:04:17.132Z,88.23
2022-12-15T18:06:44.547Z,88.32
2022-12-15T18:09:19.097Z,88.47
2022-12-15T18:11:46.901Z,88.64
2022-12-15T18:14:15.481Z,88.73
2022-12-15T18:16:42.693Z,88.76
2022-12-15T18:19:09.368Z,88.71
2022-12-15T18:21:36.872Z,88.55
2022-12-15T18:24:04.347Z,88.55
2022-12-15T18:26:37.650Z,88.68
2022-12-15T18:29:13.130Z,88.71
2022-12-15T18:31:40.741Z,88.77
2022-12-15T18:34:17.492Z,88.33
2022-12-15T18:36:44.219Z,88.43
2022-12-15T18:39:30.877Z,88.42
2022-12-15T18:42:01.707Z,88.72
2022-12-15T18:44:31.522Z,88.73
2022-12-15T18:46:58.050Z,88.75
2022-12-15T18:49:27.620Z,88.61
2022-12-15T18:51:54.044Z,88.80
2022-12-15T18:57:36.865Z,89.05
2022-12-15T19:00:12.468Z,89.08
2022-12-15T19:02:39.017Z,89.03
2022-12-15T19:05:06.552Z,89.11
2022-12-15T19:07:34.999Z,89.03
2022-12-15T19:10:01.524Z,88.97
2022-12-15T19:12:27.976Z,88.86
2022-12-15T19:14:54.953Z,88.92
2022-12-15T19:17:41.741Z,88.84
2022-12-15T19:20:38.460Z,88.61
2022-12-15T19:23:05.700Z,88.85
2022-12-15T19:25:32.897Z,88.79
2022-12-15T19:28:00.791Z,88.74
2022-12-15T19:30:30.316Z,88.90
2022-12-15T19:32:57.463Z,88.94
2022-12-15T19:35:24.804Z,88.76
2022-12-15T19:37:55.413Z,88.94
2022-12-15T19:40:27.319Z,88.88
2022-12-15T19:42:55.363Z,89.10
2022-12-15T19:45:28.659Z,88.90
2022-12-15T19:47:55.601Z,88.73
2022-12-15T19:50:24.568Z,88.96
2022-12-15T19:52:54.850Z,88.96
2022-12-15T19:55:26.285Z,88.87
2022-12-15T19:57:55.079Z,88.81
2022-12-15T20:00:22.775Z,89.06
2022-12-15T20:02:51.304Z,89.08
2022-12-15T20:05:19.481Z,89.07
2022-12-15T20:07:47.260Z,88.91
2022-12-15T20:10:27.571Z,88.98
2022-12-15T20:12:58.469Z,88.88
2022-12-15T20:15:26.107Z,88.95
2022-12-15T20:17:56.890Z,88.79
2022-12-15T20:20:28.183Z,88.66
2022-12-15T20:23:03.982Z,88.92
2022-12-15T20:25:34.450Z,89.18
2022-12-15T20:28:01.410Z,88.96
2022-12-15T20:30:35.316Z,88.89
2022-12-15T20:33:05.433Z,88.81
2022-12-15T20:35:34.663Z,88.63
2022-12-15T20:38:05.417Z,88.68
2022-12-15T20:40:32.077Z,88.62
2022-12-15T20:42:58.513Z,88.85
2022-12-15T20:45:27.067Z,88.60
2022-12-15T20:47:55.848Z,88.71
2022-12-15T20:50:30.559Z,88.87
2022-12-15T20:52:56.979Z,88.80
2022-12-15T20:55:23.535Z,88.55
2022-12-15T20:57:50.008Z,88.51
2022-12-15T21:00:18.176Z,88.54
2022-12-15T21:02:45.995Z,88.63
2022-12-15T21:05:22.318Z,88.69
2022-12-15T21:07:49.637Z,88.55
2022-12-15T21:10:17.692Z,88.63
2022-12-15T21:12:46.387Z,88.91
2022-12-15T21:15:22.916Z,88.87
2022-12-15T21:18:03.834Z,88.49
2022-12-15T21:20:41.095Z,88.80
2022-12-15T21:23:18.524Z,88.75
2022-12-15T21:25:45.261Z,88.76
2022-12-15T21:28:11.790Z,88.91
2022-12-15T21:30:38.941Z,88.67
2022-12-15T21:33:05.837Z,88.76
2022-12-15T21:35:32.342Z,88.76
2022-12-15T21:37:58.773Z,88.77
2022-12-15T21:40:28.515Z,88.94
2022-12-15T21:42:56.263Z,89.03
2022-12-15T21:45:25.118Z,88.98
2022-12-15T21:48:11.083Z,88.93
2022-12-15T21:50:38.625Z,89.13
2022-12-15T21:53:06.289Z,89.03
2022-12-15T21:55:32.976Z,88.79
2022-12-15T21:57:59.439Z,88.82
2022-12-15T22:00:26.602Z,88.82
2022-12-15T22:02:53.507Z,88.96
2022-12-15T22:05:23.097Z,88.84
2022-12-15T22:07:50.051Z,88.64
2022-12-15T22:10:18.727Z,88.60
2022-12-15T22:12:55.883Z,88.46
2022-12-15T22:15:26.258Z,88.35
2022-12-15T22:17:53.183Z,88.65
2022-12-15T22:20:24.753Z,88.62
2022-12-15T22:22:51.309Z,88.56
2022-12-15T22:25:23.669Z,88.46
2022-12-15T22:27:51.722Z,88.71
2022-12-15T22:30:25.292Z,88.69
2022-12-15T22:32:55.336Z,88.52
2022-12-15T22:35:25.338Z,88.30
2022-12-15T22:37:55.969Z,88.34
2022-12-15T22:40:23.243Z,88.22
2022-12-15T22:42:53.352Z,87.91
2022-12-15T22:45:23.929Z,88.16
2022-12-15T22:47:52.329Z,87.92
2022-12-15T22:50:21.297Z,88.08
2022-12-15T22:52:48.150Z,87.82
2022-12-15T22:55:17.030Z,87.84
2022-12-15T22:57:47.578Z,87.91
2022-12-15T23:00:14.723Z,87.90
2022-12-15T23:02:44.660Z,87.87
2022-12-15T23:05:14.139Z,87.99
2022-12-15T23:07:41.636Z,88.16
2022-12-15T23:10:28.301Z,88.25
2022-12-15T23:12:54.741Z,88.50
2022-12-15T23:15:45.579Z,88.36
2022-12-15T23:18:12.429Z,88.65
2022-12-15T23:20:39.111Z,88.63
2022-12-15T23:23:05.771Z,88.44
2022-12-15T23:25:32.235Z,88.65
2022-12-15T23:27:58.964Z,88.45
2022-12-15T23:30:25.451Z,89.03
2022-12-15T23:32:55.239Z,88.81
2022-12-15T23:35:22.016Z,88.46
2022-12-15T23:37:48.450Z,88.56
2022-12-15T23:40:21.110Z,88.78
2022-12-15T23:42:51.386Z,89.01
2022-12-15T23:45:18.843Z,88.92
2022-12-15T23:47:45.400Z,88.97
2022-12-15T23:50:11.849Z,89.07
2022-12-15T23:52:38.254Z,89.18
2022-12-15T23:55:05.026Z,89.25
2022-12-15T23:57:31.664Z,89.06
2022-12-15T23:59:58.131Z,89.33
